ADDS METAR Data INFO
IDs: Format: Raw Decoded Include TAF

Data at: 1952 UTC 15 Dec 2017

K1M5 151935Z AUTO VRB06KT 10SM CLR 03/M05 A3010 RMK A01
K1M5 151915Z AUTO 23009KT 10SM CLR 03/M05 A3010 RMK A01
K1M5 151855Z AUTO 23007KT 10SM CLR 02/M05 A3010 RMK A01
K1M5 151835Z AUTO 23007KT 200V260 10SM FEW030 02/M05 A3011 RMK A01
K1M5 151815Z AUTO VRB06KT 10SM BKN028 01/M05 A3012 RMK A01
K1M5 151755Z AUTO 27007G13KT 10SM OVC028 01/M06 A3014 RMK A01
K1M5 151735Z AUTO 27007KT 10SM OVC028 01/M06 A3015 RMK A01
K1M5 151715Z AUTO 27010KT 10SM OVC027 00/M06 A3015 RMK A01
K1M5 151655Z AUTO 30008G13KT 10SM OVC027 00/M06 A3016 RMK A01
K1M5 151635Z AUTO 29007KT 10SM OVC027 M00/M06 A3016 RMK A01
K1M5 151615Z AUTO 31006G12KT 10SM OVC027 M00/M06 A3017 RMK A01
K1M5 151555Z AUTO 30009G15KT 260V330 10SM OVC026 M00/M06 A3016 RMK A01
K1M5 151535Z AUTO 28010G16KT 10SM OVC026 M01/M06 A3016 RMK A01
K1M5 151515Z AUTO 32005G10KT 10SM OVC026 M01/M06 A3015 RMK A01
K1M5 151455Z AUTO 32007KT 10SM OVC027 M01/M06 A3014 RMK A01
K1M5 151435Z AUTO 31004G11KT 10SM OVC027 M01/M06 A3014 RMK A01
K1M5 151415Z AUTO 30005KT 10SM OVC028 M01/M06 A3013 RMK A01
K1M5 151355Z AUTO 32005KT 10SM OVC030 M01/M07 A3012 RMK A01
K1M5 151335Z AUTO 30005KT 10SM OVC030 M01/M07 A3011 RMK A01
K1M5 151315Z AUTO 31004KT 10SM OVC030 M01/M07 A3011 RMK A01
K1M5 151255Z AUTO 32005G10KT 10SM M01/M07 A3010 RMK A01
K1M5 151235Z AUTO 30005KT 10SM OVC030 M01/M07 A3009 RMK A01
K1M5 151215Z AUTO 30005KT 10SM OVC031 M01/M06 A3009 RMK A01
K1M5 151155Z AUTO 29004KT 10SM OVC030 M01/M06 A3008 RMK A01
K1M5 151135Z AUTO 29004KT 10SM OVC030 M01/M06 A3007 RMK A01
K1M5 151115Z AUTO 30003KT 10SM OVC031 M01/M06 A3007 RMK A01
K1M5 151055Z AUTO 29004KT 10SM OVC031 M01/M06 A3006 RMK A01
K1M5 151035Z AUTO 32003KT 10SM OVC031 M01/M05 A3006 RMK A01
K1M5 151015Z AUTO 00000KT 10SM OVC031 M01/M05 A3006 RMK A01
K1M5 150955Z AUTO 00000KT 10SM OVC031 M01/M05 A3006 RMK A01
K1M5 150935Z AUTO 00000KT 10SM OVC031 M01/M05 A3006 RMK A01
K1M5 150915Z AUTO 28004KT 10SM OVC032 M01/M05 A3006 RMK A01
K1M5 150855Z AUTO 31003KT 10SM OVC032 M01/M05 A3006 RMK A01
K1M5 150835Z AUTO 28003KT 10SM OVC033 M01/M05 A3006 RMK A01
K1M5 150815Z AUTO VRB04KT 10SM OVC033 M01/M05 A3006 RMK A01
K1M5 150755Z AUTO 00000KT 10SM OVC034 M01/M05 A3006 RMK A01
K1M5 150735Z AUTO 00000KT 10SM OVC034 M01/M05 A3006 RMK A01
K1M5 150715Z AUTO 00000KT 10SM OVC034 M01/M05 A3006 RMK A01
K1M5 150655Z AUTO 00000KT 10SM OVC035 M01/M05 A3006 RMK A01
K1M5 150635Z AUTO 33003KT 10SM OVC035 M01/M05 A3006 RMK A01
K1M5 150615Z AUTO 00000KT 10SM M01/M05 A3007 RMK A01
K1M5 150555Z AUTO 33004KT 10SM M01/M05 A3007 RMK A01
K1M5 150535Z AUTO 33004KT 10SM OVC036 M01/M05 A3007 RMK A01
K1M5 150515Z AUTO 34005KT 10SM M01/M05 A3008 RMK A01
K1M5 150455Z AUTO 34005KT 10SM OVC037 M01/M05 A3008 RMK A01
K1M5 150435Z AUTO 33005KT 10SM M01/M05 A3008 RMK A01
K1M5 150415Z AUTO 33005KT 10SM OVC037 M01/M05 A3008 RMK A01
K1M5 150355Z AUTO 34005KT 10SM OVC037 M01/M05 A3008 RMK A01
K1M5 150335Z AUTO 33003KT 10SM OVC039 M01/M05 A3008 RMK A01
K1M5 150315Z AUTO 00000KT 10SM OVC039 M01/M05 A3008 RMK A01
K1M5 150255Z AUTO 33003KT 10SM OVC040 M01/M05 A3007 RMK A01
K1M5 150235Z AUTO 34005KT 10SM OVC040 M02/M05 A3007 RMK A01
K1M5 150215Z AUTO 00000KT 10SM M02/M05 A3007 RMK A01
K1M5 150155Z AUTO 29004KT 10SM M01/M05 A3006 RMK A01
K1M5 150135Z AUTO 28003KT 10SM OVC034 M01/M05 A3006 RMK A01
K1M5 150115Z AUTO 28003KT 10SM OVC035 M01/M05 A3005 RMK A01
K1M5 150055Z AUTO 27003KT 10SM OVC036 M00/M05 A3004 RMK A01
K1M5 150035Z AUTO VRB04KT 10SM OVC036 M00/M05 A3005 RMK A01
K1M5 150015Z AUTO 28005G10KT 10SM OVC037 01/M05 A3005 RMK A01
K1M5 142355Z AUTO 30004KT 10SM OVC037 01/M05 A3005 RMK A01
K1M5 142335Z AUTO 29003KT 10SM OVC037 01/M05 A3004 RMK A01
K1M5 142315Z AUTO 00000KT 10SM OVC038 01/M04 A3003 RMK A01
K1M5 142255Z AUTO 00000KT 10SM OVC037 01/M05 A3003 RMK A01
K1M5 142235Z AUTO 00000KT 10SM OVC037 01/M05 A3003 RMK A01
K1M5 142215Z AUTO 00000KT 10SM OVC037 01/M05 A3003 RMK A01
K1M5 142155Z AUTO 00000KT 10SM OVC037 01/M05 A3003 RMK A01
K1M5 142135Z AUTO 23003KT 10SM OVC036 02/M05 A3003 RMK A01
K1M5 142115Z AUTO 00000KT 10SM OVC032 01/M05 A3002 RMK A01
K1M5 142055Z AUTO 32004KT 10SM OVC029 01/M05 A3003 RMK A01
K1M5 142035Z AUTO 31004KT 10SM OVC029 01/M05 A3002 RMK A01
K1M5 142015Z AUTO 33005KT 10SM OVC029 01/M05 A3002 RMK A01
K1M5 141955Z AUTO 33004KT 10SM OVC028 01/M05 A3001 RMK A01
K1M5 141935Z AUTO 32004KT 10SM OVC028 01/M05 A3000 RMK A01
K1M5 141915Z AUTO 32004KT 10SM OVC027 01/M05 A3000 RMK A01
K1M5 141855Z AUTO 33006KT 10SM OVC027 01/M05 A3000 RMK A01
K1M5 141835Z AUTO 33006KT 10SM OVC026 01/M05 A3000 RMK A01
K1M5 141815Z AUTO 34008KT 10SM OVC026 01/M05 A3001 RMK A01
K1M5 141755Z AUTO 32005KT 10SM OVC025 01/M05 A3001 RMK A01
K1M5 141735Z AUTO 32005G10KT 10SM OVC025 01/M04 A3001 RMK A01
K1M5 141715Z AUTO 31006KT 10SM OVC025 02/M04 A3001 RMK A01
K1M5 141655Z AUTO 32006KT 10SM OVC025 02/M04 A3000 RMK A01
K1M5 141635Z AUTO 34007KT 10SM OVC025 02/M03 A3000 RMK A01
K1M5 141615Z AUTO 36005G11KT 10SM OVC025 02/M03 A3000 RMK A01
K1M5 141555Z AUTO 01005KT 10SM OVC025 02/M03 A2999 RMK A01
K1M5 141535Z AUTO 35008KT 10SM OVC025 02/M03 A2999 RMK A01
K1M5 141515Z AUTO 36007KT 10SM OVC025 02/M03 A2998 RMK A01
K1M5 141455Z AUTO 35006KT 10SM OVC024 02/M03 A2998 RMK A01
K1M5 141435Z AUTO 36004KT 10SM OVC025 02/M03 A2997 RMK A01
K1M5 141415Z AUTO 34008KT 10SM OVC025 02/M03 A2995 RMK A01
K1M5 141355Z AUTO 34009KT 10SM OVC025 02/M03 A2995 RMK A01
K1M5 141335Z AUTO 34007KT 10SM OVC025 02/M03 A2994 RMK A01
K1M5 141315Z AUTO 36010KT 10SM OVC027 02/M03 A2993 RMK A01
K1M5 141255Z AUTO 33004KT 10SM OVC027 01/M02 A2993 RMK A01
K1M5 141235Z AUTO 34004KT 10SM OVC027 01/M02 A2992 RMK A01
K1M5 141215Z AUTO 34004KT 10SM OVC027 01/M03 A2991 RMK A01
K1M5 141155Z AUTO 00000KT 10SM OVC026 01/M03 A2991 RMK A01
K1M5 141135Z AUTO 00000KT 10SM BKN027 BKN035 01/M03 A2989 RMK A01
K1M5 141115Z AUTO 33004KT 10SM SCT035 01/M03 A2988 RMK A01
K1M5 141055Z AUTO 34004KT 10SM FEW035 01/M03 A2987 RMK A01
K1M5 141035Z AUTO 35007KT 10SM FEW035 01/M03 A2987 RMK A01
K1M5 141015Z AUTO 34006G13KT 10SM CLR 01/M03 A2987 RMK A01
K1M5 140955Z AUTO 34006KT 10SM FEW032 FEW042 01/M02 A2987 RMK A01
K1M5 140935Z AUTO 34006KT 10SM FEW031 FEW041 02/M02 A2986 RMK A01
K1M5 140915Z AUTO 35007KT 10SM CLR 02/M02 A2986 RMK A01
K1M5 140855Z AUTO 32007KT 10SM CLR 03/M01 A2985 RMK A01
K1M5 140835Z AUTO 33011G16KT 10SM FEW039 03/M01 A2984 RMK A01
K1M5 140815Z AUTO 34013G18KT 10SM CLR 04/M01 A2983 RMK A01
K1M5 140755Z AUTO 33006KT 10SM CLR 05/M02 A2981 RMK A01